Time;durP1;ratioP1;P1;durP2;ratioP2;P2;SDS_P1;SDS_P2;PMS_P1;PMS_P2;Temp;Humidity;BMP_temperature;BMP_pressure;BME280_temperature;BME280_humidity;BME280_pressure;Samples;Min_cycle;Max_cycle;Signal;HPM_P1;HPM_P2
2022/01/24 13:40:39;;;;;;;;;;;0.40;92.50;;;;;;5123769;27;19916;-88
2022/01/24 13:43:06;;;;;;;;;;;15.80;48.10;;;;;;5105147;28;19934;-87
2022/01/24 13:45:39;;;;;;;;;;;16.40;47.00;;;;;;5105430;28;19912;-87
2022/01/24 13:48:14;;;;;;;;;;;16.20;46.30;;;;;;5106478;28;19920;-87
2022/01/24 13:50:47;;;;;;;;;;;16.20;46.80;;;;;;5103023;28;19916;-87
2022/01/24 13:53:15;;;;;;;;;;;16.00;46.60;;;;;;5107289;28;19916;-87
2022/01/24 13:55:40;;;;;;;;;;;15.60;47.30;;;;;;5105819;28;19918;-87
2022/01/24 13:58:06;;;;;;;;;;;15.50;48.30;;;;;;5104344;28;19991;-88
2022/01/24 14:00:31;;;;;;;;;;;15.90;47.20;;;;;;5109462;28;19920;-88
2022/01/24 14:03:07;;;;;;;;;;;16.00;46.60;;;;;;5104004;28;19920;-89
2022/01/24 14:05:32;;;;;;;;;;;16.10;46.40;;;;;;5102144;28;19939;-88
2022/01/24 14:08:11;;;;;;;;;;;15.90;46.20;;;;;;5105632;28;19912;-88
2022/01/24 14:10:37;;;;;;;;;;;16.10;46.60;;;;;;5106612;28;19919;-88
2022/01/24 14:13:04;;;;;;;;;;;16.10;45.70;;;;;;5100005;28;19913;-88
2022/01/24 14:19:11;;;;;;;;;;;15.70;47.40;;;;;;5086912;28;19912;-89
2022/01/24 14:21:37;;;;;;;;;;;15.70;47.20;;;;;;5084734;28;19938;-88
2022/01/24 14:24:03;;;;;;;;;;;15.90;46.90;;;;;;5081256;28;19912;-88
2022/01/24 14:27:36;;;;;;;;;;;16.20;46.60;;;;;;5106659;27;19965;-89
2022/01/24 14:30:13;;;;;;;;;;;16.50;45.90;;;;;;5105155;28;19924;-88
2022/01/24 14:32:45;;;;;;;;;;;16.80;45.40;;;;;;5096742;28;19920;-89
2022/01/24 14:35:11;;;;;;;;;;;17.60;43.60;;;;;;5104862;28;20388;-89
2022/01/24 14:37:51;;;;;;;;;;;17.60;42.80;;;;;;5101321;28;19920;-89
2022/01/24 14:40:35;;;;;;;;;;;17.00;44.20;;;;;;5134713;27;19923;-89
2022/01/24 14:45:58;;;;;;;;;;;17.60;42.90;;;;;;5074861;28;19924;-88
2022/01/24 14:48:23;;;;;;;;;;;17.50;42.80;;;;;;5101446;28;19924;-88
2022/01/24 14:50:49;;;;;;;;;;;17.10;43.50;;;;;;5103248;28;19970;-88
2022/01/24 14:53:16;;;;;;;;;;;16.70;44.00;;;;;;5105753;28;19912;-89
2022/01/24 14:55:42;;;;;;;;;;;16.20;45.70;;;;;;5105265;28;19916;-88
2022/01/24 14:58:08;;;;;;;;;;;15.90;46.50;;;;;;5103662;28;19924;-88
2022/01/24 15:00:33;;;;;;;;;;;15.80;46.50;;;;;;5104178;28;19911;-88
2022/01/24 15:02:59;;;;;;;;;;;15.40;47.70;;;;;;5099419;28;20354;-88
2022/01/24 15:05:24;;;;;;;;;;;15.30;48.20;;;;;;5103027;28;19939;-88
2022/01/24 15:07:50;;;;;;;;;;;15.20;48.70;;;;;;5099963;28;20280;-89
2022/01/24 15:10:16;;;;;;;;;;;15.30;48.20;;;;;;5100440;28;19935;-88
2022/01/24 15:12:48;;;;;;;;;;;15.20;48.20;;;;;;5099198;28;19912;-88
2022/01/24 15:15:16;;;;;;;;;;;15.30;48.20;;;;;;5100251;28;19912;-89
2022/01/24 15:23:56;;;;;;;;;;;15.70;47.20;;;;;;5107476;28;19912;-88
2022/01/24 15:25:56;;;;;;;;;;;14.30;49.90;;;;;;5100117;28;19927;-88
2022/01/24 15:28:21;;;;;;;;;;;13.80;51.10;;;;;;5099833;28;19912;-88
2022/01/24 15:30:47;;;;;;;;;;;13.30;52.50;;;;;;5102831;28;19962;-88
2022/01/24 15:33:13;;;;;;;;;;;12.70;54.20;;;;;;5102204;28;19912;-88
2022/01/24 15:35:38;;;;;;;;;;;12.10;55.90;;;;;;5102772;28;20014;-87
2022/01/24 15:38:04;;;;;;;;;;;11.70;57.10;;;;;;5090466;28;20247;-88
2022/01/24 15:40:31;;;;;;;;;;;11.50;57.80;;;;;;5084861;28;19947;-88
2022/01/24 15:43:03;;;;;;;;;;;11.40;58.30;;;;;;5087258;28;19916;-88
2022/01/24 15:47:55;;;;;;;;;;;11.10;59.30;;;;;;5088703;28;19955;-89
2022/01/24 15:50:23;;;;;;;;;;;10.90;60.00;;;;;;5087980;28;19912;-88
2022/01/24 15:52:49;;;;;;;;;;;10.70;60.70;;;;;;5090917;28;20297;-88
2022/01/24 15:55:16;;;;;;;;;;;10.50;61.40;;;;;;5094437;28;19908;-88
2022/01/24 15:57:43;;;;;;;;;;;10.20;62.20;;;;;;5093130;28;19911;-88
2022/01/24 16:00:13;;;;;;;;;;;10.00;63.20;;;;;;5089590;28;19920;-88
2022/01/24 16:02:41;;;;;;;;;;;9.70;64.30;;;;;;5084924;28;21537;-88
2022/01/24 16:05:07;;;;;;;;;;;9.40;65.50;;;;;;5087385;28;19912;-88
2022/01/24 16:07:33;;;;;;;;;;;9.10;66.70;;;;;;5087300;28;20387;-88
2022/01/24 16:09:59;;;;;;;;;;;8.80;67.70;;;;;;5081877;28;20472;-88
2022/01/24 16:12:24;;;;;;;;;;;8.50;68.70;;;;;;5081867;28;19919;-88
2022/01/24 16:14:50;;;;;;;;;;;8.20;69.90;;;;;;5081738;28;20082;-88
2022/01/24 16:17:16;;;;;;;;;;;8.00;70.80;;;;;;5080877;28;19919;-88
2022/01/24 16:19:49;;;;;;;;;;;7.90;71.20;;;;;;5079403;28;19966;-88
2022/01/24 16:22:27;;;;;;;;;;;7.90;71.40;;;;;;5084699;28;19912;-88
2022/01/24 16:27:37;;;;;;;;;;;7.80;71.30;;;;;;5091045;28;19919;-89
2022/01/24 16:30:03;;;;;;;;;;;7.60;72.00;;;;;;5083146;28;19912;-88
2022/01/24 16:32:28;;;;;;;;;;;7.50;72.50;;;;;;5084019;28;19916;-89
2022/01/24 16:34:57;;;;;;;;;;;7.40;72.70;;;;;;5083450;28;19919;-89
2022/01/24 16:37:23;;;;;;;;;;;7.30;72.60;;;;;;5084911;28;20385;-88
2022/01/24 16:39:48;;;;;;;;;;;7.10;73.20;;;;;;5086717;28;19947;-88
2022/01/24 16:42:16;;;;;;;;;;;6.80;74.30;;;;;;5082136;28;20243;-88
2022/01/24 16:44:57;;;;;;;;;;;6.50;75.40;;;;;;5081091;28;19912;-88
2022/01/24 16:47:24;;;;;;;;;;;6.40;76.40;;;;;;5080866;28;19923;-88
2022/01/24 16:49:53;;;;;;;;;;;6.20;77.10;;;;;;5085166;28;19915;-88
2022/01/24 16:52:18;;;;;;;;;;;6.10;78.20;;;;;;5089778;28;19959;-88
2022/01/24 16:54:47;;;;;;;;;;;6.00;78.50;;;;;;5077938;28;19974;-88
2022/01/24 16:57:15;;;;;;;;;;;6.00;78.30;;;;;;5082656;28;19912;-88
2022/01/24 16:59:41;;;;;;;;;;;6.10;78.30;;;;;;5084108;28;19913;-88
2022/01/24 17:02:08;;;;;;;;;;;6.20;78.40;;;;;;5086950;28;19931;-88
2022/01/24 17:04:34;;;;;;;;;;;6.20;78.40;;;;;;5085414;28;19916;-88
2022/01/24 17:07:00;;;;;;;;;;;6.40;78.40;;;;;;5094261;28;19923;-88
2022/01/24 17:09:25;;;;;;;;;;;6.40;78.10;;;;;;5084516;28;19912;-88
2022/01/24 17:11:56;;;;;;;;;;;6.50;77.50;;;;;;5084760;28;20362;-88
2022/01/24 17:14:24;;;;;;;;;;;6.40;77.00;;;;;;5089294;28;19920;-88
2022/01/24 17:16:50;;;;;;;;;;;6.10;77.70;;;;;;5087040;28;20001;-88
2022/01/24 17:19:16;;;;;;;;;;;5.90;77.30;;;;;;5087984;28;19946;-88
2022/01/24 17:21:43;;;;;;;;;;;5.40;77.90;;;;;;5079606;28;19912;-88
2022/01/24 17:24:09;;;;;;;;;;;5.30;79.50;;;;;;5097206;27;19927;-88
2022/01/24 17:26:38;;;;;;;;;;;5.10;80.20;;;;;;5087621;28;19924;-88
2022/01/24 17:29:04;;;;;;;;;;;5.00;81.50;;;;;;5084414;28;19965;-88
2022/01/24 17:31:30;;;;;;;;;;;5.00;83.10;;;;;;5084236;28;20604;-88
2022/01/24 17:33:55;;;;;;;;;;;4.90;83.30;;;;;;5088840;28;20154;-88
2022/01/24 17:36:21;;;;;;;;;;;5.00;83.30;;;;;;5089967;28;19918;-88
2022/01/24 17:38:46;;;;;;;;;;;5.10;83.40;;;;;;5083207;28;20366;-88
2022/01/24 17:41:12;;;;;;;;;;;5.10;83.20;;;;;;5083471;28;19919;-88
2022/01/24 17:43:37;;;;;;;;;;;5.20;83.10;;;;;;5086481;28;19920;-88
2022/01/24 17:46:03;;;;;;;;;;;5.30;83.20;;;;;;5093644;28;19912;-88
2022/01/24 17:48:29;;;;;;;;;;;5.30;83.10;;;;;;5093624;28;19912;-88
2022/01/24 17:50:55;;;;;;;;;;;5.30;83.00;;;;;;5092843;28;19912;-88
2022/01/24 17:53:22;;;;;;;;;;;5.30;83.10;;;;;;5091224;28;19919;-88
2022/01/24 17:55:51;;;;;;;;;;;5.20;83.40;;;;;;5076286;28;19912;-88
2022/01/24 17:58:17;;;;;;;;;;;5.20;83.10;;;;;;5072661;28;20286;-88
2022/01/24 18:00:43;;;;;;;;;;;5.00;82.60;;;;;;5090021;28;19912;-88
2022/01/24 18:03:08;;;;;;;;;;;4.80;83.00;;;;;;5093024;28;19912;-88
2022/01/24 18:05:34;;;;;;;;;;;4.60;84.10;;;;;;5091587;28;19971;-87
2022/01/24 18:08:01;;;;;;;;;;;4.40;84.60;;;;;;5093701;28;19934;-88
2022/01/24 18:10:27;;;;;;;;;;;4.10;84.00;;;;;;5081386;28;19919;-87
2022/01/24 18:12:53;;;;;;;;;;;3.90;83.90;;;;;;5073195;28;19908;-88
2022/01/24 18:15:20;;;;;;;;;;;3.90;84.40;;;;;;5073419;28;20012;-88
2022/01/24 18:17:45;;;;;;;;;;;3.80;84.90;;;;;;5073157;28;19916;-88
2022/01/24 18:20:11;;;;;;;;;;;3.60;85.40;;;;;;5086202;28;19912;-88
2022/01/24 18:22:36;;;;;;;;;;;3.70;86.70;;;;;;5093293;28;19915;-88
2022/01/24 18:25:03;;;;;;;;;;;3.90;87.30;;;;;;5093002;28;19966;-88
2022/01/24 18:27:29;;;;;;;;;;;4.10;87.70;;;;;;5093064;28;19916;-88
2022/01/24 18:29:58;;;;;;;;;;;4.30;87.80;;;;;;5082118;28;19908;-88
2022/01/24 18:32:25;;;;;;;;;;;4.40;87.50;;;;;;5073031;28;19916;-87
2022/01/24 18:34:52;;;;;;;;;;;4.50;86.90;;;;;;5075009;28;19950;-87
2022/01/24 18:37:18;;;;;;;;;;;4.70;86.40;;;;;;5088072;28;19919;-88
2022/01/24 18:39:43;;;;;;;;;;;4.80;85.80;;;;;;5093092;28;19947;-88
2022/01/24 18:42:11;;;;;;;;;;;4.80;85.40;;;;;;5093088;28;19970;-88
2022/01/24 18:44:40;;;;;;;;;;;4.80;85.40;;;;;;5093056;28;19933;-87
2022/01/24 18:47:06;;;;;;;;;;;4.80;85.30;;;;;;5076928;28;19960;-87
2022/01/24 18:49:31;;;;;;;;;;;4.70;86.60;;;;;;5074110;28;19947;-88
2022/01/24 18:51:57;;;;;;;;;;;4.70;86.20;;;;;;5072808;28;19909;-88
2022/01/24 18:54:23;;;;;;;;;;;4.70;86.10;;;;;;5072768;28;19962;-88
2022/01/24 18:56:50;;;;;;;;;;;4.90;86.10;;;;;;5085669;28;19912;-88
2022/01/24 18:59:16;;;;;;;;;;;5.00;86.10;;;;;;5093226;28;19912;-88
2022/01/24 19:01:41;;;;;;;;;;;5.20;85.60;;;;;;5092886;28;20388;-88
2022/01/24 19:04:08;;;;;;;;;;;5.40;84.80;;;;;;5092762;28;19908;-88
2022/01/24 19:06:33;;;;;;;;;;;5.50;83.90;;;;;;5073764;28;19916;-88
2022/01/24 19:08:59;;;;;;;;;;;5.60;83.30;;;;;;5092251;28;19922;-88
2022/01/24 19:11:27;;;;;;;;;;;5.70;82.90;;;;;;5092788;28;19967;-88
2022/01/24 19:13:52;;;;;;;;;;;5.60;82.50;;;;;;5096154;28;19908;-88
2022/01/24 19:16:18;;;;;;;;;;;5.50;82.60;;;;;;5093347;28;19912;-88
2022/01/24 19:18:53;;;;;;;;;;;5.40;82.70;;;;;;5096562;28;19965;-88
2022/01/24 19:24:02;;;;;;;;;;;5.30;83.30;;;;;;5076213;28;19959;-87
2022/01/24 19:26:28;;;;;;;;;;;5.30;83.30;;;;;;5093471;28;19924;-87
2022/01/24 19:28:54;;;;;;;;;;;5.30;83.30;;;;;;5096246;28;19908;-87
2022/01/24 19:31:19;;;;;;;;;;;5.30;83.30;;;;;;5096284;28;19943;-88
2022/01/24 19:33:45;;;;;;;;;;;5.30;83.40;;;;;;5096287;28;19915;-88
2022/01/24 19:36:11;;;;;;;;;;;5.40;83.20;;;;;;5094448;28;19969;-88
2022/01/24 19:38:37;;;;;;;;;;;5.50;82.80;;;;;;5096174;28;19908;-88
2022/01/24 19:41:03;;;;;;;;;;;5.50;82.60;;;;;;5096086;28;19908;-88
2022/01/24 19:43:29;;;;;;;;;;;5.60;82.60;;;;;;5096120;28;19912;-88
2022/01/24 19:45:54;;;;;;;;;;;5.70;82.30;;;;;;5092478;28;19962;-88
2022/01/24 19:48:26;;;;;;;;;;;5.70;82.00;;;;;;5096006;28;19935;-88
2022/01/24 19:50:56;;;;;;;;;;;5.60;81.90;;;;;;5085199;28;19935;-88
2022/01/24 19:53:22;;;;;;;;;;;5.50;82.00;;;;;;5075977;28;19913;-88
2022/01/24 19:55:55;;;;;;;;;;;5.30;82.40;;;;;;5084960;28;19918;-87
2022/01/24 19:58:25;;;;;;;;;;;5.10;82.80;;;;;;5095827;28;19908;-88
2022/01/24 20:00:52;;;;;;;;;;;5.00;83.40;;;;;;5095754;28;19944;-88
2022/01/24 20:03:18;;;;;;;;;;;5.00;83.90;;;;;;5096030;28;19923;-88
2022/01/24 20:05:47;;;;;;;;;;;5.00;84.00;;;;;;5085135;28;19923;-87
2022/01/24 20:08:14;;;;;;;;;;;5.00;84.00;;;;;;5087600;28;19938;-87
2022/01/24 20:10:40;;;;;;;;;;;5.00;84.00;;;;;;5095596;28;19955;-88
2022/01/24 20:13:06;;;;;;;;;;;5.00;84.10;;;;;;5095549;28;19912;-88
2022/01/24 20:15:31;;;;;;;;;;;5.00;84.00;;;;;;5086872;28;19912;-88
2022/01/24 20:17:57;;;;;;;;;;;5.00;84.20;;;;;;5075204;28;19999;-88
2022/01/24 20:20:23;;;;;;;;;;;5.00;84.20;;;;;;5076182;28;20388;-88
2022/01/24 20:22:49;;;;;;;;;;;5.10;84.30;;;;;;5075005;28;19919;-88
2022/01/24 20:25:15;;;;;;;;;;;5.30;84.00;;;;;;5080319;28;19919;-88
2022/01/24 20:27:41;;;;;;;;;;;5.40;83.20;;;;;;5095159;28;19915;-88
2022/01/24 20:30:07;;;;;;;;;;;5.60;82.50;;;;;;5093447;28;19908;-88
2022/01/24 20:32:34;;;;;;;;;;;5.80;81.80;;;;;;5074904;28;19908;-88
2022/01/24 20:34:59;;;;;;;;;;;5.90;81.20;;;;;;5076267;28;19915;-88
2022/01/24 20:37:27;;;;;;;;;;;6.00;80.20;;;;;;5093348;28;20442;-88
2022/01/24 20:39:53;;;;;;;;;;;5.90;79.80;;;;;;5094954;28;19953;-88
2022/01/24 20:42:19;;;;;;;;;;;5.70;80.10;;;;;;5094125;28;19920;-87
2022/01/24 20:44:45;;;;;;;;;;;5.70;80.40;;;;;;5093480;28;19908;-87
2022/01/24 20:47:11;;;;;;;;;;;5.60;80.60;;;;;;5074553;28;20374;-88
2022/01/24 20:49:36;;;;;;;;;;;5.60;81.00;;;;;;5074601;28;19908;-87
2022/01/24 20:52:02;;;;;;;;;;;5.50;81.30;;;;;;5075420;28;19912;-88
2022/01/24 20:54:28;;;;;;;;;;;5.50;81.60;;;;;;5074484;28;19909;-88
2022/01/24 20:56:53;;;;;;;;;;;5.60;81.60;;;;;;5075410;28;19919;-88
2022/01/24 20:59:19;;;;;;;;;;;5.70;81.10;;;;;;5074603;28;20023;-88
2022/01/24 21:01:44;;;;;;;;;;;5.70;80.70;;;;;;5088775;28;20361;-88
2022/01/24 21:04:10;;;;;;;;;;;5.70;80.50;;;;;;5094590;28;20006;-87
2022/01/24 21:06:38;;;;;;;;;;;5.70;80.60;;;;;;5092624;28;19923;-88
2022/01/24 21:09:13;;;;;;;;;;;5.60;80.80;;;;;;5094671;28;19908;-88
2022/01/24 21:11:39;;;;;;;;;;;5.70;80.70;;;;;;5092588;28;19945;-88
2022/01/24 21:14:05;;;;;;;;;;;5.70;80.80;;;;;;5094339;28;19908;-88
2022/01/24 21:16:31;;;;;;;;;;;5.80;80.40;;;;;;5078559;28;19935;-88
2022/01/24 21:18:57;;;;;;;;;;;5.80;80.20;;;;;;5072691;28;19915;-88
2022/01/24 21:21:23;;;;;;;;;;;5.70;80.50;;;;;;5086377;28;20046;-88
2022/01/24 21:23:50;;;;;;;;;;;5.60;80.90;;;;;;5094135;28;19958;-88
2022/01/24 21:26:16;;;;;;;;;;;5.50;81.30;;;;;;5092096;28;20007;-88
2022/01/24 21:28:42;;;;;;;;;;;5.40;81.80;;;;;;5089532;28;20000;-88
2022/01/24 21:31:11;;;;;;;;;;;5.30;82.20;;;;;;5073728;28;19912;-88
2022/01/24 21:33:43;;;;;;;;;;;5.30;82.30;;;;;;5073728;28;20378;-88
2022/01/24 21:36:12;;;;;;;;;;;5.40;82.00;;;;;;5081242;28;19918;-88
2022/01/24 21:38:38;;;;;;;;;;;5.50;81.50;;;;;;5093865;28;19908;-88
2022/01/24 21:41:04;;;;;;;;;;;5.50;80.80;;;;;;5093786;28;19948;-88
2022/01/24 21:43:32;;;;;;;;;;;5.70;80.40;;;;;;5093793;28;19955;-88
2022/01/24 21:45:58;;;;;;;;;;;5.70;79.90;;;;;;5090485;28;19976;-88
2022/01/24 21:48:24;;;;;;;;;;;5.80;79.60;;;;;;5073437;28;20366;-88
2022/01/24 21:50:51;;;;;;;;;;;5.70;79.50;;;;;;5074427;28;19916;-88
2022/01/24 21:53:16;;;;;;;;;;;5.50;79.90;;;;;;5073699;28;19944;-88
2022/01/24 21:55:42;;;;;;;;;;;5.40;80.30;;;;;;5074399;28;20400;-88
2022/01/24 21:58:07;;;;;;;;;;;5.40;80.70;;;;;;5073336;28;19991;-88
2022/01/24 22:00:33;;;;;;;;;;;5.40;80.70;;;;;;5073349;28;19908;-88
2022/01/24 22:03:00;;;;;;;;;;;5.30;80.20;;;;;;5073588;28;20034;-87
2022/01/24 22:05:26;;;;;;;;;;;5.30;80.20;;;;;;5082065;28;19923;-88
2022/01/24 22:10:18;;;;;;;;;;;5.30;80.20;;;;;;5093378;28;19961;-88
2022/01/24 22:12:44;;;;;;;;;;;5.30;80.40;;;;;;5093425;28;19908;-88
2022/01/24 22:15:11;;;;;;;;;;;5.30;80.60;;;;;;5086481;28;19919;-88
2022/01/24 22:17:37;;;;;;;;;;;5.40;80.40;;;;;;5092735;28;20431;-88
2022/01/24 22:20:04;;;;;;;;;;;5.40;80.40;;;;;;5091768;28;19912;-88
2022/01/24 22:25:14;;;;;;;;;;;5.40;80.30;;;;;;5100584;22;20030;-88
2022/01/24 22:27:39;;;;;;;;;;;5.40;80.60;;;;;;5093158;28;19966;-88
2022/01/24 22:30:06;;;;;;;;;;;5.40;80.90;;;;;;5093132;28;19908;-88
2022/01/24 22:32:31;;;;;;;;;;;5.40;81.20;;;;;;5092898;28;19918;-88
2022/01/24 22:34:57;;;;;;;;;;;5.40;81.50;;;;;;5092903;28;20351;-88
2022/01/24 22:37:23;;;;;;;;;;;5.40;81.40;;;;;;5093164;28;19908;-88
2022/01/24 22:39:48;;;;;;;;;;;5.40;80.30;;;;;;5093092;28;19916;-88
2022/01/24 22:42:14;;;;;;;;;;;5.20;80.30;;;;;;5092669;28;19912;-88
2022/01/24 22:44:39;;;;;;;;;;;5.20;80.60;;;;;;5093036;28;19916;-88
2022/01/24 22:47:05;;;;;;;;;;;5.10;81.20;;;;;;5093523;28;19912;-88
2022/01/24 22:49:32;;;;;;;;;;;5.00;82.20;;;;;;5097143;28;19908;-88
2022/01/24 22:52:01;;;;;;;;;;;4.90;82.90;;;;;;5096728;28;19912;-88
2022/01/24 22:54:28;;;;;;;;;;;4.90;83.20;;;;;;5097089;28;19908;-88
2022/01/24 22:56:57;;;;;;;;;;;4.80;83.40;;;;;;5097012;28;19908;-88
2022/01/24 22:59:24;;;;;;;;;;;4.80;83.50;;;;;;5096920;28;20289;-88
2022/01/24 23:01:50;;;;;;;;;;;4.70;83.50;;;;;;5096635;28;19920;-88
2022/01/24 23:04:15;;;;;;;;;;;4.70;83.60;;;;;;5096904;28;19908;-88
2022/01/24 23:06:41;;;;;;;;;;;4.70;83.90;;;;;;5096431;28;20305;-88
2022/01/24 23:09:07;;;;;;;;;;;4.80;84.00;;;;;;5096989;28;19908;-88
2022/01/24 23:11:32;;;;;;;;;;;4.90;83.50;;;;;;5096912;28;19943;-88
2022/01/24 23:19:12;;;;;;;;;;;5.40;79.30;;;;;;5096914;28;20285;-88
2022/01/24 23:21:41;;;;;;;;;;;5.40;78.70;;;;;;5096537;28;19919;-88
2022/01/24 23:24:08;;;;;;;;;;;5.40;78.50;;;;;;5096502;28;19912;-88
2022/01/24 23:26:37;;;;;;;;;;;5.40;78.50;;;;;;5096218;28;19920;-87
2022/01/24 23:29:08;;;;;;;;;;;5.40;78.30;;;;;;5096298;28;19908;-88
2022/01/24 23:31:37;;;;;;;;;;;5.40;78.30;;;;;;5096279;28;19920;-88
2022/01/24 23:39:23;;;;;;;;;;;5.40;78.70;;;;;;5096519;28;19915;-88
2022/01/24 23:41:51;;;;;;;;;;;5.40;78.50;;;;;;5095876;28;20448;-88
2022/01/24 23:44:18;;;;;;;;;;;5.40;78.50;;;;;;5096092;28;19991;-88
2022/01/24 23:46:49;;;;;;;;;;;5.40;78.30;;;;;;5095942;28;19912;-88
2022/01/24 23:49:15;;;;;;;;;;;5.40;78.20;;;;;;5095653;28;19955;-88
2022/01/24 23:51:41;;;;;;;;;;;5.40;78.40;;;;;;5095672;28;19965;-88
2022/01/24 23:54:07;;;;;;;;;;;5.30;78.70;;;;;;5096031;28;21722;-88
2022/01/24 23:56:41;;;;;;;;;;;5.20;79.20;;;;;;5095914;28;20332;-88
